createdAt,value
2018-11-02T00:00:07.198Z,11.58
2018-11-02T00:02:36.926Z,11.59
2018-11-02T00:05:07.312Z,11.56
2018-11-02T00:07:37.182Z,11.55
2018-11-02T00:10:07.739Z,11.45
2018-11-02T00:12:37.211Z,11.47
2018-11-02T00:15:07.511Z,11.51
2018-11-02T00:17:37.819Z,11.53
2018-11-02T00:20:07.747Z,11.49
2018-11-02T00:22:37.643Z,11.46
2018-11-02T00:25:07.607Z,11.38
2018-11-02T00:27:37.615Z,11.42
2018-11-02T00:30:07.632Z,11.39
2018-11-02T00:32:37.716Z,11.52
2018-11-02T00:35:08.431Z,11.55
2018-11-02T00:37:37.624Z,11.43
2018-11-02T00:40:08.891Z,11.35
2018-11-02T00:42:39.107Z,11.33
2018-11-02T00:45:10.322Z,11.35
2018-11-02T00:47:39.719Z,11.34
2018-11-02T00:50:10.999Z,11.36
2018-11-02T00:52:40.144Z,11.32
2018-11-02T00:55:10.237Z,11.36
2018-11-02T00:57:39.458Z,11.36
2018-11-02T01:00:12.048Z,11.40
2018-11-02T01:02:41.220Z,11.42
2018-11-02T01:05:10.610Z,11.35
2018-11-02T01:07:39.777Z,11.36
2018-11-02T01:10:11.668Z,11.38
2018-11-02T01:12:41.072Z,11.50
2018-11-02T01:15:10.681Z,11.50
2018-11-02T01:17:39.814Z,11.45
2018-11-02T01:20:11.319Z,11.51
2018-11-02T01:22:40.483Z,11.53
2018-11-02T01:25:09.781Z,11.47
2018-11-02T01:27:38.926Z,11.41
2018-11-02T01:30:08.118Z,11.32
2018-11-02T01:32:37.756Z,11.42
2018-11-02T01:35:08.298Z,11.48
2018-11-02T01:37:37.438Z,11.42
2018-11-02T01:40:07.590Z,11.33
2018-11-02T01:42:36.746Z,11.34
2018-11-02T01:45:05.902Z,11.33
2018-11-02T01:47:35.043Z,11.16
2018-11-02T01:50:04.277Z,11.18
2018-11-02T01:52:33.410Z,11.08
2018-11-02T01:55:02.593Z,11.18
2018-11-02T01:57:32.013Z,11.02
2018-11-02T02:00:01.335Z,11.00
2018-11-02T02:02:30.573Z,10.88
2018-11-02T02:04:59.724Z,10.90
2018-11-02T02:07:28.867Z,10.91
2018-11-02T02:09:58.028Z,10.92
2018-11-02T02:12:27.435Z,10.91
2018-11-02T02:14:56.583Z,10.96
2018-11-02T02:17:25.723Z,10.98
2018-11-02T02:19:54.876Z,10.94
2018-11-02T02:22:24.023Z,10.98
2018-11-02T02:24:53.245Z,11.00
2018-11-02T02:27:22.383Z,11.11
2018-11-02T02:29:51.772Z,10.96
2018-11-02T02:32:21.789Z,11.03
2018-11-02T02:34:51.807Z,11.02
2018-11-02T02:37:22.737Z,10.98
2018-11-02T02:39:51.925Z,10.97
2018-11-02T02:42:21.843Z,10.97
2018-11-02T02:44:51.867Z,10.89
2018-11-02T02:47:21.895Z,10.91
2018-11-02T02:49:51.823Z,10.87
2018-11-02T02:52:21.906Z,10.79
2018-11-02T02:54:51.897Z,10.82
2018-11-02T02:57:21.035Z,10.85
2018-11-02T02:59:50.211Z,10.83
2018-11-02T03:02:19.345Z,10.81
2018-11-02T03:04:48.540Z,10.71
2018-11-02T03:07:17.762Z,10.69
2018-11-02T03:09:46.873Z,10.75
2018-11-02T03:12:16.009Z,10.71
2018-11-02T03:14:45.159Z,10.74
2018-11-02T03:17:14.303Z,10.65
2018-11-02T03:19:43.468Z,10.61
2018-11-02T03:22:12.645Z,10.57
2018-11-02T03:24:41.754Z,10.59
2018-11-02T03:27:10.879Z,10.54
2018-11-02T03:29:40.085Z,10.53
2018-11-02T03:32:09.237Z,10.50
2018-11-02T03:34:38.358Z,10.51
2018-11-02T03:37:07.508Z,10.49
2018-11-02T03:39:36.638Z,10.48
2018-11-02T03:42:06.868Z,10.47
2018-11-02T03:44:36.060Z,10.48
2018-11-02T03:47:05.206Z,10.36
2018-11-02T03:49:34.326Z,10.31
2018-11-02T03:52:03.905Z,10.36
2018-11-02T03:54:33.135Z,10.29
2018-11-02T03:57:02.371Z,10.30
2018-11-02T03:59:31.448Z,10.32
2018-11-02T04:02:00.581Z,10.24
2018-11-02T04:04:29.707Z,10.25
2018-11-02T04:06:58.851Z,10.24
2018-11-02T04:09:28.134Z,10.30
2018-11-02T04:11:57.236Z,10.34
2018-11-02T04:14:26.608Z,10.39
2018-11-02T04:16:55.743Z,10.27
2018-11-02T04:19:25.107Z,10.23
2018-11-02T04:21:54.240Z,10.30
2018-11-02T04:24:23.388Z,10.33
2018-11-02T04:26:52.532Z,10.24
2018-11-02T04:29:22.228Z,10.20
2018-11-02T04:31:52.623Z,10.26
2018-11-02T04:34:22.326Z,10.31
2018-11-02T04:36:52.585Z,10.18
2018-11-02T04:39:22.322Z,10.13
2018-11-02T04:41:51.508Z,10.12
2018-11-02T04:44:20.636Z,10.17
2018-11-02T04:46:49.828Z,10.13
2018-11-02T04:49:19.099Z,10.08
2018-11-02T04:51:48.239Z,10.05
2018-11-02T04:54:17.425Z,10.04
2018-11-02T04:56:46.590Z,10.06
2018-11-02T04:59:15.715Z,10.01
2018-11-02T05:01:44.865Z,10.03
2018-11-02T05:04:14.044Z,10.07
2018-11-02T05:06:43.192Z,9.93
2018-11-02T05:09:12.328Z,10.06
2018-11-02T05:11:41.471Z,9.90
2018-11-02T05:14:10.612Z,9.80
2018-11-02T05:16:39.744Z,9.61
2018-11-02T05:19:08.869Z,9.60
2018-11-02T05:21:38.057Z,9.68
2018-11-02T05:24:07.196Z,9.75
2018-11-02T05:26:36.341Z,9.59
2018-11-02T05:29:05.929Z,9.66
2018-11-02T05:31:35.069Z,9.65
2018-11-02T05:34:04.488Z,9.75
2018-11-02T05:36:33.638Z,9.85
2018-11-02T05:39:02.803Z,9.81
2018-11-02T05:41:33.335Z,9.84
2018-11-02T05:44:03.502Z,9.78
2018-11-02T05:46:32.647Z,9.86
2018-11-02T05:49:02.568Z,9.88
2018-11-02T05:51:32.520Z,9.91
2018-11-02T05:54:02.634Z,9.99
2018-11-02T05:56:32.528Z,10.05
2018-11-02T06:14:56.556Z,10.04
2018-11-02T06:17:31.347Z,10.05
2018-11-02T06:20:00.500Z,9.99
2018-11-02T06:22:29.591Z,10.18
2018-11-02T06:24:58.732Z,10.19
2018-11-02T06:27:28.101Z,10.13
2018-11-02T06:29:57.259Z,10.17
2018-11-02T06:32:26.722Z,10.16
2018-11-02T06:34:55.872Z,10.09
2018-11-02T06:37:24.986Z,10.16
2018-11-02T06:39:54.120Z,10.24
2018-11-02T06:42:23.270Z,10.13
2018-11-02T06:44:52.511Z,10.18
2018-11-02T06:47:21.702Z,10.27
2018-11-02T06:49:50.814Z,10.23
2018-11-02T06:52:19.999Z,10.23
2018-11-02T06:54:49.131Z,10.31
2018-11-02T06:57:18.467Z,10.36
2018-11-02T06:59:47.921Z,10.38
2018-11-02T07:02:16.747Z,10.38
2018-11-02T07:04:45.935Z,10.37
2018-11-02T07:07:15.172Z,10.47
2018-11-02T07:09:44.295Z,10.38
2018-11-02T07:12:13.443Z,10.46
2018-11-02T07:14:42.582Z,10.56
2018-11-02T07:17:11.746Z,10.61
2018-11-02T07:19:40.878Z,10.73
2018-11-02T07:22:10.027Z,10.83
2018-11-02T07:24:39.390Z,10.84
2018-11-02T07:27:08.628Z,10.78
2018-11-02T07:29:37.853Z,10.71
2018-11-02T07:32:07.004Z,10.81
2018-11-02T07:34:36.228Z,10.72
2018-11-02T07:37:05.400Z,10.78
2018-11-02T07:39:35.130Z,10.74
2018-11-02T07:42:04.728Z,10.68
2018-11-02T07:44:33.856Z,10.72
2018-11-02T07:47:03.004Z,10.79
2018-11-02T07:49:32.970Z,10.87
2018-11-02T07:52:02.965Z,10.86
2018-11-02T07:54:32.906Z,10.78
2018-11-02T07:59:31.531Z,10.97
2018-11-02T08:02:00.766Z,11.04
2018-11-02T08:04:29.815Z,11.05
2018-11-02T08:06:58.971Z,11.11
2018-11-02T08:09:28.108Z,11.15
2018-11-02T08:11:57.260Z,11.18
2018-11-02T08:14:26.395Z,11.32
2018-11-02T08:16:55.591Z,11.48
2018-11-02T08:19:24.735Z,11.66
2018-11-02T08:21:53.947Z,11.79
2018-11-02T08:24:23.106Z,11.90
2018-11-02T08:26:52.256Z,11.99
2018-11-02T08:29:21.526Z,12.00
2018-11-02T08:31:50.690Z,12.06
2018-11-02T08:34:19.813Z,12.08
2018-11-02T08:36:49.300Z,12.09
2018-11-02T08:39:18.444Z,12.28
2018-11-02T08:41:47.596Z,12.38
2018-11-02T08:44:16.747Z,12.40
2018-11-02T08:46:46.325Z,12.45
2018-11-02T08:49:15.552Z,12.44
2018-11-02T08:51:44.751Z,12.44
2018-11-02T08:54:13.927Z,12.50
2018-11-02T08:56:43.445Z,12.57
2018-11-02T08:59:12.717Z,12.57
2018-11-02T09:01:41.740Z,12.60
2018-11-02T09:04:10.871Z,12.66
2018-11-02T09:06:40.152Z,12.74
2018-11-02T09:09:10.239Z,12.90
2018-11-02T09:11:39.417Z,12.99
2018-11-02T09:14:08.676Z,13.05
2018-11-02T09:16:37.823Z,13.02
2018-11-02T09:19:06.959Z,12.99
2018-11-02T09:21:36.121Z,13.05
2018-11-02T09:24:05.418Z,13.13
2018-11-02T09:26:34.560Z,13.26
2018-11-02T09:29:03.709Z,13.43
2018-11-02T09:31:33.822Z,13.61
2018-11-02T09:34:03.248Z,13.81
2018-11-02T09:36:34.495Z,13.96
2018-11-02T09:39:05.120Z,14.02
2018-11-02T09:41:34.351Z,13.64
2018-11-02T09:44:03.633Z,13.86
2018-11-02T09:46:33.370Z,13.95
2018-11-02T09:49:02.556Z,14.01
2018-11-02T09:51:31.840Z,14.01
2018-11-02T09:54:00.844Z,14.02
2018-11-02T09:56:29.991Z,14.05
2018-11-02T09:58:59.136Z,14.10
2018-11-02T10:01:30.399Z,14.19
2018-11-02T10:03:59.731Z,14.28
2018-11-02T10:06:28.893Z,14.30
2018-11-02T10:08:58.078Z,14.39
2018-11-02T10:11:27.280Z,14.44
2018-11-02T10:13:56.424Z,14.51
2018-11-02T10:16:26.131Z,14.53
2018-11-02T10:18:55.274Z,14.55
2018-11-02T10:21:24.492Z,14.51
2018-11-02T10:23:54.448Z,14.63
2018-11-02T10:26:23.506Z,14.72
2018-11-02T10:28:52.731Z,14.77
2018-11-02T10:31:21.871Z,14.85
2018-11-02T10:33:51.175Z,14.95
2018-11-02T10:36:20.719Z,14.89
2018-11-02T10:38:49.871Z,14.95
2018-11-02T10:42:25.816Z,15.02
2018-11-02T10:44:55.095Z,14.93
2018-11-02T10:47:24.141Z,14.97
2018-11-02T10:49:53.515Z,15.04
2018-11-02T10:52:22.667Z,15.10
2018-11-02T10:54:51.830Z,15.10
2018-11-02T10:57:21.044Z,15.09
2018-11-02T10:59:50.192Z,15.23
2018-11-02T11:02:28.377Z,15.23
2018-11-02T11:04:57.875Z,15.26
2018-11-02T11:07:27.040Z,15.38
2018-11-02T11:09:56.188Z,15.46
2018-11-02T11:12:25.495Z,15.52
2018-11-02T11:14:54.641Z,15.50
2018-11-02T11:17:23.782Z,15.55
2018-11-02T11:19:52.931Z,15.54
2018-11-02T11:22:22.083Z,15.45
2018-11-02T11:24:51.280Z,15.43
2018-11-02T11:27:20.468Z,15.36
2018-11-02T11:29:49.572Z,15.28
2018-11-02T11:32:18.725Z,15.31
2018-11-02T11:34:47.871Z,15.28
2018-11-02T11:37:17.015Z,15.28
2018-11-02T11:39:46.227Z,15.21
2018-11-02T11:42:15.327Z,15.19
2018-11-02T11:44:44.503Z,15.20
2018-11-02T11:47:13.689Z,15.11
2018-11-02T11:49:42.847Z,15.17
2018-11-02T11:52:12.000Z,15.16
2018-11-02T11:54:41.230Z,15.17
2018-11-02T11:57:10.401Z,15.15
2018-11-02T11:59:39.592Z,15.19
2018-11-02T12:02:08.747Z,15.25
2018-11-02T12:04:37.934Z,15.28
2018-11-02T12:07:07.183Z,15.31
2018-11-02T12:09:36.334Z,15.33
2018-11-02T12:12:05.772Z,15.31
2018-11-02T12:14:34.919Z,15.30
2018-11-02T12:17:04.057Z,15.25
2018-11-02T12:19:33.845Z,15.25
2018-11-02T12:22:05.219Z,15.30
2018-11-02T12:24:34.716Z,15.30
2018-11-02T12:27:03.858Z,15.29
2018-11-02T12:29:34.094Z,15.30
2018-11-02T12:32:04.132Z,15.28
2018-11-02T12:34:34.328Z,15.26
2018-11-02T12:37:03.578Z,15.22
2018-11-02T12:39:32.617Z,15.24
2018-11-02T12:42:01.760Z,15.20
2018-11-02T12:44:31.059Z,15.18
2018-11-02T12:47:00.208Z,15.13
2018-11-02T12:49:29.639Z,15.15
2018-11-02T12:51:58.498Z,15.12
2018-11-02T12:54:27.655Z,15.14
2018-11-02T12:56:56.799Z,15.14
2018-11-02T12:59:26.694Z,15.15
2018-11-02T13:01:55.839Z,15.08
2018-11-02T13:04:25.156Z,14.99
2018-11-02T13:06:54.299Z,14.97
2018-11-02T13:09:23.510Z,15.01
2018-11-02T13:11:52.728Z,15.00
2018-11-02T13:14:21.828Z,15.00
2018-11-02T13:16:50.976Z,15.00
2018-11-02T13:19:20.136Z,15.00
2018-11-02T13:21:49.376Z,15.02
2018-11-02T13:24:18.563Z,15.04
2018-11-02T13:26:47.715Z,14.97
2018-11-02T13:29:18.557Z,14.93
2018-11-02T13:31:47.767Z,14.94
2018-11-02T13:34:16.917Z,14.94
2018-11-02T13:36:46.303Z,14.91
2018-11-02T13:39:15.227Z,14.91
2018-11-02T13:41:46.436Z,14.90
2018-11-02T13:44:15.638Z,14.88
2018-11-02T13:46:44.785Z,14.91
2018-11-02T13:49:14.161Z,14.88
2018-11-02T13:51:45.843Z,14.83
2018-11-02T13:54:16.851Z,14.83
2018-11-02T13:56:46.913Z,14.81
2018-11-02T13:59:16.682Z,14.75
2018-11-02T14:01:45.851Z,14.72
2018-11-02T14:04:14.997Z,14.84
2018-11-02T14:06:44.339Z,14.83
2018-11-02T14:09:13.544Z,14.76
2018-11-02T14:11:42.812Z,14.75
2018-11-02T14:14:11.924Z,14.74
2018-11-02T14:16:41.083Z,14.72
2018-11-02T14:19:10.236Z,14.72
2018-11-02T14:21:39.424Z,14.72
2018-11-02T14:24:08.619Z,14.72
2018-11-02T14:26:38.086Z,14.70
2018-11-02T14:29:08.182Z,14.72
2018-11-02T14:31:38.241Z,14.73
2018-11-02T14:34:08.214Z,14.72
2018-11-02T14:36:38.216Z,14.73
2018-11-02T14:39:11.484Z,14.71
2018-11-02T14:41:41.203Z,14.72
2018-11-02T14:44:11.118Z,14.70
2018-11-02T14:46:41.373Z,14.70
2018-11-02T14:49:10.963Z,14.65
2018-11-02T14:51:40.981Z,14.65
2018-11-02T14:54:10.932Z,14.64
2018-11-02T14:56:41.019Z,14.63
2018-11-02T14:59:10.864Z,14.57
2018-11-02T15:01:40.996Z,14.60
2018-11-02T15:04:11.150Z,14.58
2018-11-02T15:06:41.019Z,14.63
2018-11-02T15:09:12.376Z,14.62
2018-11-02T15:11:41.517Z,14.61
2018-11-02T15:14:11.052Z,14.63
2018-11-02T15:16:41.086Z,14.70
2018-11-02T15:19:11.112Z,14.67
2018-11-02T15:21:41.273Z,14.64
2018-11-02T15:24:11.062Z,14.62
2018-11-02T15:26:41.246Z,14.57
2018-11-02T15:29:11.168Z,14.58
2018-11-02T15:31:41.204Z,14.56
2018-11-02T15:34:11.128Z,14.57
2018-11-02T15:36:41.234Z,14.59
2018-11-02T15:39:12.514Z,14.49
2018-11-02T15:41:41.987Z,14.43
2018-11-02T15:44:11.345Z,14.46
2018-11-02T15:46:41.162Z,14.47
2018-11-02T15:49:11.255Z,14.49
2018-11-02T15:51:41.232Z,14.47
2018-11-02T15:54:11.888Z,14.47
2018-11-02T15:56:41.329Z,14.43
2018-11-02T15:59:11.268Z,14.40
2018-11-02T16:01:41.316Z,14.38
2018-11-02T16:04:11.395Z,14.37
2018-11-02T16:06:41.354Z,14.36
2018-11-02T16:09:15.531Z,14.37
2018-11-02T16:11:45.716Z,14.38
2018-11-02T16:14:15.235Z,14.37
2018-11-02T16:16:49.840Z,14.33
2018-11-02T16:19:19.532Z,14.36
2018-11-02T16:21:48.688Z,14.31
2018-11-02T16:24:17.837Z,14.29
2018-11-02T16:26:46.982Z,14.26
2018-11-02T16:29:16.157Z,14.24
2018-11-02T16:31:45.283Z,14.25
2018-11-02T16:34:14.561Z,14.24
2018-11-02T16:36:43.697Z,14.23
2018-11-02T16:39:13.342Z,14.19
2018-11-02T16:41:42.622Z,14.18
2018-11-02T16:44:11.862Z,14.17
2018-11-02T16:46:41.372Z,14.10
2018-11-02T16:49:10.519Z,14.09
2018-11-02T16:51:39.679Z,14.09
2018-11-02T16:54:08.831Z,14.07
2018-11-02T16:56:38.132Z,14.05
2018-11-02T16:59:07.252Z,14.04
2018-11-02T17:01:36.451Z,14.05
2018-11-02T17:04:06.002Z,14.03
2018-11-02T17:06:35.151Z,14.04
2018-11-02T17:09:06.450Z,14.03
2018-11-02T17:11:35.784Z,13.98
2018-11-02T17:14:05.072Z,13.98
2018-11-02T17:16:34.227Z,13.97
2018-11-02T17:19:03.390Z,13.91
2018-11-02T17:21:32.888Z,13.93
2018-11-02T17:24:02.307Z,13.94
2018-11-02T17:26:31.456Z,13.92
2018-11-02T17:29:00.799Z,13.93
2018-11-02T17:31:30.052Z,13.89
2018-11-02T17:33:59.204Z,13.93
2018-11-02T17:36:28.436Z,13.92
2018-11-02T17:38:57.550Z,13.93
2018-11-02T17:41:26.699Z,13.91
2018-11-02T17:43:55.852Z,13.93
2018-11-02T17:46:25.011Z,13.89
2018-11-02T17:48:54.170Z,13.86
2018-11-02T17:51:23.322Z,13.85
2018-11-02T17:53:52.484Z,13.88
2018-11-02T17:56:21.775Z,13.84
2018-11-02T17:58:50.964Z,13.88
2018-11-02T18:01:20.107Z,13.84
2018-11-02T18:03:49.379Z,13.83
2018-11-02T18:06:18.648Z,13.80
2018-11-02T18:08:47.880Z,13.80
2018-11-02T18:11:17.056Z,13.87
2018-11-02T18:13:46.251Z,13.91
2018-11-02T18:16:15.379Z,13.87
2018-11-02T18:18:44.584Z,13.84
2018-11-02T18:21:13.668Z,13.84
2018-11-02T18:23:42.831Z,13.85
2018-11-02T18:26:12.601Z,13.86
2018-11-02T18:28:42.943Z,13.88
2018-11-02T18:31:12.639Z,13.73
2018-11-02T18:33:44.559Z,13.75
2018-11-02T18:36:13.709Z,13.64
2018-11-02T18:38:42.950Z,13.61
2018-11-02T18:41:12.645Z,13.67
2018-11-02T18:43:42.701Z,13.60
2018-11-02T18:48:50.224Z,13.63
2018-11-02T18:51:19.356Z,13.56
2018-11-02T18:53:48.514Z,13.53
2018-11-02T18:56:17.664Z,13.57
2018-11-02T18:58:46.828Z,13.53
2018-11-02T19:01:15.972Z,13.48
2018-11-02T19:03:45.175Z,13.35
2018-11-02T19:06:14.302Z,13.43
2018-11-02T19:08:43.473Z,13.44
2018-11-02T19:11:12.704Z,13.41
2018-11-02T19:13:42.891Z,13.35
2018-11-02T19:16:12.728Z,13.44
2018-11-02T19:18:53.964Z,13.40
2018-11-02T19:21:23.143Z,13.39
2018-11-02T19:23:52.259Z,13.39
2018-11-02T19:26:21.412Z,13.41
2018-11-02T19:28:50.776Z,13.39
2018-11-02T19:31:19.960Z,13.38
2018-11-02T19:33:49.197Z,13.25
2018-11-02T19:36:18.338Z,13.31
2018-11-02T19:38:47.692Z,13.33
2018-11-02T19:41:17.075Z,13.34
2018-11-02T19:43:46.295Z,13.33
2018-11-02T19:46:15.430Z,13.28
2018-11-02T19:48:44.628Z,13.27
2018-11-02T19:51:13.735Z,13.18
2018-11-02T19:53:42.983Z,13.26
2018-11-02T19:56:13.792Z,13.22
2018-11-02T19:58:42.959Z,13.30
2018-11-02T20:01:12.810Z,13.31
2018-11-02T20:03:43.088Z,13.31
2018-11-02T20:06:12.902Z,13.20
2018-11-02T20:08:42.162Z,13.12
2018-11-02T20:11:11.344Z,13.05
2018-11-02T20:13:40.488Z,13.16
2018-11-02T20:16:09.652Z,13.13
2018-11-02T20:18:38.803Z,13.12
2018-11-02T20:21:08.056Z,13.11
2018-11-02T20:23:37.227Z,13.09
2018-11-02T20:26:06.519Z,13.03
2018-11-02T20:28:35.631Z,12.98
2018-11-02T20:31:04.775Z,13.02
2018-11-02T20:33:33.936Z,12.99
2018-11-02T20:36:03.064Z,12.89
2018-11-02T20:38:32.211Z,12.88
2018-11-02T20:41:01.392Z,12.89
2018-11-02T20:48:29.364Z,12.69
2018-11-02T20:50:58.536Z,12.78
2018-11-02T20:53:27.663Z,12.78
2018-11-02T20:55:56.828Z,12.89
2018-11-02T20:58:25.984Z,12.92
2018-11-02T21:00:55.198Z,12.82
2018-11-02T21:03:24.342Z,12.85
2018-11-02T21:05:53.515Z,12.87
2018-11-02T21:08:22.687Z,12.78
2018-11-02T21:10:51.842Z,12.78
2018-11-02T21:13:20.989Z,12.69
2018-11-02T21:15:50.140Z,12.66
2018-11-02T21:18:20.330Z,12.78
2018-11-02T21:20:49.682Z,12.75
2018-11-02T21:23:18.744Z,12.80
2018-11-02T21:25:47.900Z,12.82
2018-11-02T21:28:17.070Z,12.85
2018-11-02T21:30:46.324Z,12.91
2018-11-02T21:33:15.580Z,12.93
2018-11-02T21:35:44.760Z,12.99
2018-11-02T21:38:13.981Z,12.96
2018-11-02T21:40:43.049Z,12.99
2018-11-02T21:43:12.203Z,12.98
2018-11-02T21:45:41.366Z,13.02
2018-11-02T21:48:10.503Z,13.08
2018-11-02T21:50:39.658Z,13.00
2018-11-02T21:53:08.802Z,12.96
2018-11-02T21:55:37.951Z,13.00
2018-11-02T21:58:07.104Z,13.11
2018-11-02T22:00:36.268Z,13.08
2018-11-02T22:03:05.467Z,13.05
2018-11-02T22:05:34.690Z,13.08
2018-11-02T22:08:03.822Z,13.06
2018-11-02T22:10:32.979Z,13.07
2018-11-02T22:13:02.248Z,13.05
2018-11-02T22:15:31.595Z,13.06
2018-11-02T22:18:01.200Z,13.00
2018-11-02T22:20:31.303Z,13.00
2018-11-02T22:23:01.216Z,13.00
2018-11-02T22:25:31.239Z,12.97
2018-11-02T22:28:01.224Z,12.96
2018-11-02T22:30:31.267Z,12.91
2018-11-02T22:33:01.284Z,12.96
2018-11-02T22:35:31.318Z,12.91
2018-11-02T22:38:01.333Z,12.87
2018-11-02T22:40:30.467Z,12.92
2018-11-02T22:42:59.643Z,12.93
2018-11-02T22:45:28.805Z,12.86
2018-11-02T22:48:03.286Z,12.86
2018-11-02T22:50:32.444Z,12.88
2018-11-02T22:53:01.708Z,12.90
2018-11-02T22:55:31.328Z,12.95
2018-11-02T22:58:01.281Z,12.82
2018-11-02T23:00:31.311Z,12.93
2018-11-02T23:03:00.479Z,12.87
2018-11-02T23:05:29.631Z,12.88
2018-11-02T23:07:58.801Z,12.81
2018-11-02T23:10:27.948Z,12.83
2018-11-02T23:12:57.099Z,12.81
2018-11-02T23:15:26.252Z,12.83
2018-11-02T23:17:55.433Z,12.77
2018-11-02T23:20:24.577Z,12.83
2018-11-02T23:22:53.737Z,12.80
2018-11-02T23:25:22.882Z,12.82
2018-11-02T23:27:52.208Z,12.76
2018-11-02T23:30:21.348Z,12.75
2018-11-02T23:32:50.504Z,12.75
2018-11-02T23:35:19.653Z,12.73
2018-11-02T23:37:48.808Z,12.78
2018-11-02T23:40:17.939Z,12.75
2018-11-02T23:42:47.092Z,12.73
2018-11-02T23:45:16.228Z,12.72
2018-11-02T23:47:50.580Z,12.75
2018-11-02T23:50:19.720Z,12.67
2018-11-02T23:52:48.866Z,12.67
2018-11-02T23:55:17.994Z,12.67
2018-11-02T23:57:47.144Z,12.72
